createdAt,value
2022-10-10T00:02:53.455Z,69.2
2022-10-10T00:07:53.363Z,69.2
2022-10-10T00:12:53.680Z,69
2022-10-10T00:17:53.345Z,68.8
2022-10-10T00:22:53.699Z,68.8
2022-10-10T00:27:53.361Z,69.1
2022-10-10T00:32:53.504Z,69
2022-10-10T00:37:53.324Z,69.4
2022-10-10T00:42:53.799Z,69.5
2022-10-10T00:47:53.352Z,69.4
2022-10-10T00:52:53.633Z,69.7
2022-10-10T00:57:53.329Z,69.7
2022-10-10T01:02:53.737Z,69.8
2022-10-10T01:07:53.348Z,70
2022-10-10T01:12:53.618Z,69.8
2022-10-10T01:17:53.322Z,70.2
2022-10-10T01:22:53.516Z,70.1
2022-10-10T01:27:53.342Z,70.5
2022-10-10T01:32:53.672Z,70.6
2022-10-10T01:37:53.312Z,70.9
2022-10-10T01:42:53.654Z,70.9
2022-10-10T01:47:53.338Z,71.2
2022-10-10T01:52:53.677Z,71.3
2022-10-10T01:57:53.320Z,71.3
2022-10-10T02:02:53.643Z,71.3
2022-10-10T02:07:53.342Z,71.6
2022-10-10T02:12:53.747Z,71.6
2022-10-10T02:17:53.453Z,71.6
2022-10-10T02:22:53.800Z,72
2022-10-10T02:27:53.396Z,72.3
2022-10-10T02:32:53.780Z,72.6
2022-10-10T02:37:53.474Z,73
2022-10-10T02:42:53.797Z,73
2022-10-10T02:47:53.703Z,73.1
2022-10-10T02:52:53.876Z,73.2
2022-10-10T02:57:53.662Z,73.4
2022-10-10T03:02:54.013Z,73.4
2022-10-10T03:07:53.749Z,73.4
2022-10-10T03:12:53.973Z,73.1
2022-10-10T03:17:53.973Z,73.6
2022-10-10T03:22:53.933Z,73.9
2022-10-10T03:27:53.929Z,74.1
2022-10-10T03:32:54.131Z,74.1
2022-10-10T03:37:53.948Z,74
2022-10-10T03:42:54.175Z,74.3
2022-10-10T03:47:53.911Z,74.3
2022-10-10T03:52:53.937Z,74.3
2022-10-10T03:57:53.884Z,74.4
2022-10-10T04:02:54.102Z,74.7
2022-10-10T04:07:53.896Z,74.8
2022-10-10T04:12:54.394Z,75.1
2022-10-10T04:17:53.881Z,75.6
2022-10-10T04:22:54.122Z,75.9
2022-10-10T04:27:57.274Z,76.2
2022-10-10T04:32:54.062Z,76.4
2022-10-10T04:37:53.870Z,76.4
2022-10-10T04:42:53.920Z,76.4
2022-10-10T04:47:53.894Z,76.5
2022-10-10T04:52:54.108Z,76.6
2022-10-10T04:57:53.862Z,77.1
2022-10-10T05:02:54.288Z,77.5
2022-10-10T05:07:55.570Z,77.8
2022-10-10T05:12:54.249Z,78.2
2022-10-10T05:17:53.870Z,79
2022-10-10T05:22:54.070Z,79.5
2022-10-10T05:27:53.891Z,79.7
2022-10-10T05:32:54.085Z,80
2022-10-10T05:37:53.870Z,80.3
2022-10-10T05:42:54.089Z,80.1
2022-10-10T05:47:53.879Z,80.1
2022-10-10T05:52:54.260Z,80.4
2022-10-10T05:57:53.851Z,81.2
2022-10-10T06:02:54.494Z,81.5
2022-10-10T06:08:11.970Z,81.5
2022-10-10T06:12:54.213Z,81.5
2022-10-10T06:17:53.848Z,81.6
2022-10-10T06:22:54.169Z,81.2
2022-10-10T06:27:53.874Z,81.3
2022-10-10T06:32:56.726Z,81.3
2022-10-10T06:37:53.843Z,81
2022-10-10T06:42:54.243Z,80.4
2022-10-10T06:47:53.879Z,80.2
2022-10-10T06:52:53.961Z,80.1
2022-10-10T06:57:53.837Z,79.7
2022-10-10T07:02:54.063Z,79.8
2022-10-10T07:07:53.855Z,79.9
2022-10-10T07:12:54.137Z,79.9
2022-10-10T07:17:54.485Z,79.5
2022-10-10T07:22:54.115Z,79.3
2022-10-10T07:27:53.853Z,79
2022-10-10T07:32:54.038Z,79.1
2022-10-10T07:37:53.840Z,79
2022-10-10T07:42:54.127Z,78.9
2022-10-10T07:47:54.223Z,78
2022-10-10T07:52:53.835Z,77.8
2022-10-10T07:57:53.856Z,77.2
2022-10-10T08:02:53.831Z,77.1
2022-10-10T08:07:54.272Z,76.8
2022-10-10T08:12:53.915Z,76.3
2022-10-10T08:17:54.085Z,76.6
2022-10-10T08:22:54.158Z,75.9
2022-10-10T08:27:53.851Z,75.7
2022-10-10T08:32:54.000Z,75.9
2022-10-10T08:37:53.855Z,76.5
2022-10-10T08:42:54.040Z,76.5
2022-10-10T08:47:53.834Z,76.8
2022-10-10T08:52:54.134Z,76.4
2022-10-10T08:57:53.811Z,76.5
2022-10-10T09:02:54.445Z,75.1
2022-10-10T09:07:53.854Z,74.8
2022-10-10T09:12:53.837Z,74.6
2022-10-10T09:17:53.818Z,74.3
2022-10-10T09:22:53.807Z,73.7
2022-10-10T09:27:53.834Z,73.1
2022-10-10T09:32:53.809Z,72.6
2022-10-10T09:37:53.801Z,73
2022-10-10T09:42:53.795Z,72.8
2022-10-10T09:47:53.897Z,70
2022-10-10T09:52:53.793Z,69.4
2022-10-10T09:57:53.805Z,69.8
2022-10-10T10:02:53.814Z,68.2
2022-10-10T10:07:53.871Z,66.9
2022-10-10T10:12:53.854Z,67.9
2022-10-10T10:17:53.832Z,67.8
2022-10-10T10:22:53.802Z,66.1
2022-10-10T10:27:53.823Z,66
2022-10-10T10:32:54.137Z,66.2
2022-10-10T10:37:53.779Z,66.4
2022-10-10T10:42:53.784Z,66.4
2022-10-10T10:47:53.863Z,66.5
2022-10-10T10:52:53.777Z,66.1
2022-10-10T10:58:10.686Z,65.2
2022-10-10T11:03:02.413Z,63.6
2022-10-10T11:07:53.805Z,64.5
2022-10-10T11:12:53.857Z,63.8
2022-10-10T11:17:53.784Z,63.7
2022-10-10T11:22:53.780Z,63.9
2022-10-10T11:27:53.806Z,61.7
2022-10-10T11:32:53.769Z,61.5
2022-10-10T11:37:53.774Z,61.5
2022-10-10T11:42:53.772Z,61
2022-10-10T11:47:53.904Z,62.1
2022-10-10T11:52:53.763Z,61.6
2022-10-10T11:57:53.769Z,61.7
2022-10-10T12:02:53.757Z,60.8
2022-10-10T12:07:53.909Z,61.1
2022-10-10T12:12:53.876Z,61.1
2022-10-10T12:17:53.778Z,60.7
2022-10-10T12:22:53.761Z,60.7
2022-10-10T12:27:53.784Z,60.7
2022-10-10T12:32:53.760Z,60.6
2022-10-10T12:37:53.767Z,60.5
2022-10-10T12:42:53.762Z,60.7
2022-10-10T12:48:04.838Z,60.3
2022-10-10T12:52:53.754Z,60
2022-10-10T12:57:53.771Z,58.9
2022-10-10T13:02:53.760Z,59.2
2022-10-10T13:07:53.783Z,58.6
2022-10-10T13:12:53.813Z,58.4
2022-10-10T13:17:53.748Z,58.6
2022-10-10T13:22:53.754Z,58.6
2022-10-10T13:27:53.808Z,58
2022-10-10T13:32:53.751Z,57.7
2022-10-10T13:37:53.742Z,57.8
2022-10-10T13:42:53.748Z,58
2022-10-10T13:47:53.771Z,58.1
2022-10-10T13:52:53.738Z,57.6
2022-10-10T13:57:55.373Z,56.6
2022-10-10T14:02:53.753Z,57
2022-10-10T14:07:53.776Z,57
2022-10-10T14:12:53.812Z,56.7
2022-10-10T14:17:53.740Z,56.5
2022-10-10T14:22:53.735Z,56.4
2022-10-10T14:27:53.899Z,56
2022-10-10T14:32:53.748Z,56.3
2022-10-10T14:37:53.735Z,56.7
2022-10-10T14:42:53.747Z,56.5
2022-10-10T14:47:53.758Z,56.1
2022-10-10T14:52:53.812Z,56
2022-10-10T14:57:53.732Z,55.9
2022-10-10T15:02:53.821Z,56.1
2022-10-10T15:07:53.948Z,56.1
2022-10-10T15:12:53.800Z,56.2
2022-10-10T15:17:53.774Z,56.5
2022-10-10T15:22:53.726Z,56.7
2022-10-10T15:27:53.757Z,56.9
2022-10-10T15:32:53.726Z,57.1
2022-10-10T15:37:53.722Z,57.3
2022-10-10T15:42:53.930Z,57.5
2022-10-10T15:47:53.744Z,57.5
2022-10-10T15:52:53.724Z,57.6
2022-10-10T15:57:53.712Z,58
2022-10-10T16:02:53.701Z,58.1
2022-10-10T16:07:53.739Z,58.3
2022-10-10T16:12:53.815Z,58.4
2022-10-10T16:17:53.714Z,58.6
2022-10-10T16:22:53.724Z,58.8
2022-10-10T16:27:53.730Z,58.9
2022-10-10T16:32:53.726Z,59.1
2022-10-10T16:37:53.712Z,59.2
2022-10-10T16:42:53.706Z,59.3
2022-10-10T16:47:53.740Z,59.6
2022-10-10T16:52:53.741Z,59.7
2022-10-10T16:57:53.703Z,60
2022-10-10T17:02:53.716Z,60.3
2022-10-10T17:07:53.728Z,60.5
2022-10-10T17:12:53.735Z,60.6
2022-10-10T17:17:53.699Z,61.1
2022-10-10T17:22:53.699Z,61.4
2022-10-10T17:27:53.766Z,61.6
2022-10-10T17:32:53.691Z,61.5
2022-10-10T17:37:53.692Z,61.8
2022-10-10T17:42:53.686Z,62
2022-10-10T17:47:53.714Z,61.9
2022-10-10T17:52:53.687Z,62.4
2022-10-10T17:57:53.761Z,62.7
2022-10-10T18:02:53.684Z,63
2022-10-10T18:07:53.716Z,63.6
2022-10-10T18:12:53.696Z,63.8
2022-10-10T18:17:53.689Z,64
2022-10-10T18:22:53.698Z,64.5
2022-10-10T18:27:53.712Z,65.3
2022-10-10T18:32:53.689Z,65.6
2022-10-10T18:37:53.687Z,65.9
2022-10-10T18:42:53.684Z,66.1
2022-10-10T18:47:53.710Z,66.3
2022-10-10T18:52:53.681Z,66.5
2022-10-10T18:57:53.682Z,67.2
2022-10-10T19:02:53.673Z,67.6
2022-10-10T19:07:53.704Z,68.4
2022-10-10T19:12:53.740Z,69
2022-10-10T19:17:53.696Z,69.6
2022-10-10T19:22:53.682Z,70
2022-10-10T19:27:53.702Z,70.4
2022-10-10T19:32:53.737Z,71.3
2022-10-10T19:37:53.669Z,71.8
2022-10-10T19:42:53.665Z,72.3
2022-10-10T19:47:53.691Z,72.8
2022-10-10T19:52:53.662Z,73
2022-10-10T19:57:53.666Z,73.7
2022-10-10T20:02:53.675Z,74.3
2022-10-10T20:07:53.682Z,74.7
2022-10-10T20:12:53.680Z,75
2022-10-10T20:17:53.660Z,75.5
2022-10-10T20:22:53.653Z,75.7
2022-10-10T20:27:53.713Z,76.4
2022-10-10T20:32:53.705Z,76.8
2022-10-10T20:37:53.665Z,76.9
2022-10-10T20:42:53.648Z,76.5
2022-10-10T20:47:53.673Z,75.8
2022-10-10T20:52:53.644Z,75.5
2022-10-10T20:57:53.649Z,76.3
2022-10-10T21:02:53.644Z,76.3
2022-10-10T21:07:53.667Z,76.1
2022-10-10T21:12:53.658Z,76.1
2022-10-10T21:17:53.642Z,76.5
2022-10-10T21:22:53.646Z,78
2022-10-10T21:27:53.664Z,80.1
2022-10-10T21:32:53.638Z,81.3
2022-10-10T21:37:53.648Z,83.2
2022-10-10T21:42:53.643Z,84.2
2022-10-10T21:47:53.657Z,85.6
2022-10-10T21:52:53.633Z,87
2022-10-10T21:57:53.620Z,89
2022-10-10T22:02:53.622Z,90
2022-10-10T22:07:53.660Z,90.9
2022-10-10T22:12:53.628Z,91.4
2022-10-10T22:17:53.631Z,91.7
2022-10-10T22:22:53.630Z,92.3
2022-10-10T22:27:57.068Z,92.7
2022-10-10T22:32:53.622Z,93.1
2022-10-10T22:37:53.628Z,93.4
2022-10-10T22:42:53.619Z,93.3
2022-10-10T22:47:53.643Z,93.8
2022-10-10T22:52:53.618Z,94.4
2022-10-10T22:57:53.615Z,94.7
2022-10-10T23:02:53.609Z,94.8
2022-10-10T23:07:53.644Z,94.8
2022-10-10T23:12:53.638Z,93.7
2022-10-10T23:17:53.610Z,93.1
2022-10-10T23:22:53.604Z,92.5
2022-10-10T23:27:53.630Z,92
2022-10-10T23:32:53.604Z,91.3
2022-10-10T23:37:53.605Z,90.3
2022-10-10T23:42:53.610Z,90
2022-10-10T23:47:53.622Z,88.9
2022-10-10T23:52:53.595Z,87.9
2022-10-10T23:57:53.604Z,87.1
